sensor_id;sensor_type;location;lat;lon;timestamp;P1;durP1;ratioP1;P2;durP2;ratioP2
33644;SDS011;19986;48.190;16.366;2023-06-19T00:02:10;41.97;;;39.33;;
33644;SDS011;19986;48.190;16.366;2023-06-19T00:04:36;40.78;;;38.38;;
33644;SDS011;19986;48.190;16.366;2023-06-19T00:07:03;42.42;;;39.80;;
33644;SDS011;19986;48.190;16.366;2023-06-19T00:09:29;40.05;;;37.65;;
33644;SDS011;19986;48.190;16.366;2023-06-19T00:11:55;40.10;;;37.83;;
33644;SDS011;19986;48.190;16.366;2023-06-19T00:14:21;43.08;;;40.50;;
33644;SDS011;19986;48.190;16.366;2023-06-19T00:16:47;42.03;;;39.10;;
33644;SDS011;19986;48.190;16.366;2023-06-19T00:19:13;41.85;;;39.30;;
33644;SDS011;19986;48.190;16.366;2023-06-19T00:21:38;42.03;;;39.45;;
33644;SDS011;19986;48.190;16.366;2023-06-19T00:24:05;41.28;;;38.78;;
33644;SDS011;19986;48.190;16.366;2023-06-19T00:26:31;42.83;;;40.10;;
33644;SDS011;19986;48.190;16.366;2023-06-19T00:28:57;40.78;;;38.28;;
33644;SDS011;19986;48.190;16.366;2023-06-19T00:31:22;40.22;;;37.83;;
33644;SDS011;19986;48.190;16.366;2023-06-19T00:33:49;41.85;;;39.45;;
33644;SDS011;19986;48.190;16.366;2023-06-19T00:36:16;41.65;;;39.05;;
33644;SDS011;19986;48.190;16.366;2023-06-19T00:38:46;39.55;;;37.15;;
33644;SDS011;19986;48.190;16.366;2023-06-19T00:41:13;41.90;;;39.58;;
33644;SDS011;19986;48.190;16.366;2023-06-19T00:43:41;41.63;;;39.22;;
33644;SDS011;19986;48.190;16.366;2023-06-19T00:46:07;42.10;;;39.42;;
33644;SDS011;19986;48.190;16.366;2023-06-19T00:48:33;42.45;;;39.90;;
33644;SDS011;19986;48.190;16.366;2023-06-19T00:51:00;43.03;;;40.35;;
33644;SDS011;19986;48.190;16.366;2023-06-19T00:53:26;42.45;;;39.85;;
33644;SDS011;19986;48.190;16.366;2023-06-19T00:55:52;42.08;;;39.47;;
33644;SDS011;19986;48.190;16.366;2023-06-19T00:58:20;43.08;;;40.38;;
33644;SDS011;19986;48.190;16.366;2023-06-19T01:00:49;42.25;;;39.80;;
33644;SDS011;19986;48.190;16.366;2023-06-19T01:03:16;41.53;;;39.17;;
33644;SDS011;19986;48.190;16.366;2023-06-19T01:05:42;42.70;;;40.30;;
33644;SDS011;19986;48.190;16.366;2023-06-19T01:08:12;41.78;;;39.25;;
33644;SDS011;19986;48.190;16.366;2023-06-19T01:10:50;42.33;;;39.90;;
33644;SDS011;19986;48.190;16.366;2023-06-19T01:13:21;40.53;;;37.88;;
33644;SDS011;19986;48.190;16.366;2023-06-19T01:15:54;41.20;;;38.55;;
33644;SDS011;19986;48.190;16.366;2023-06-19T01:18:21;43.58;;;40.55;;
33644;SDS011;19986;48.190;16.366;2023-06-19T01:20:49;42.38;;;39.92;;
33644;SDS011;19986;48.190;16.366;2023-06-19T01:23:14;42.92;;;40.08;;
33644;SDS011;19986;48.190;16.366;2023-06-19T01:25:40;41.00;;;38.50;;
33644;SDS011;19986;48.190;16.366;2023-06-19T01:28:07;41.15;;;38.75;;
33644;SDS011;19986;48.190;16.366;2023-06-19T01:30:40;40.97;;;38.58;;
33644;SDS011;19986;48.190;16.366;2023-06-19T01:33:09;40.78;;;38.30;;
33644;SDS011;19986;48.190;16.366;2023-06-19T01:35:49;43.67;;;40.97;;
33644;SDS011;19986;48.190;16.366;2023-06-19T01:38:17;41.38;;;38.97;;
33644;SDS011;19986;48.190;16.366;2023-06-19T01:40:48;42.70;;;40.30;;
33644;SDS011;19986;48.190;16.366;2023-06-19T01:43:15;43.45;;;40.75;;
33644;SDS011;19986;48.190;16.366;2023-06-19T01:45:42;41.40;;;38.80;;
33644;SDS011;19986;48.190;16.366;2023-06-19T01:48:09;41.25;;;38.75;;
33644;SDS011;19986;48.190;16.366;2023-06-19T01:50:36;42.05;;;39.65;;
33644;SDS011;19986;48.190;16.366;2023-06-19T01:53:03;41.80;;;39.40;;
33644;SDS011;19986;48.190;16.366;2023-06-19T01:55:29;43.15;;;40.10;;
33644;SDS011;19986;48.190;16.366;2023-06-19T01:57:55;43.08;;;40.58;;
33644;SDS011;19986;48.190;16.366;2023-06-19T02:00:22;44.25;;;41.67;;
33644;SDS011;19986;48.190;16.366;2023-06-19T02:02:48;41.10;;;38.60;;
33644;SDS011;19986;48.190;16.366;2023-06-19T02:05:14;42.92;;;40.33;;
33644;SDS011;19986;48.190;16.366;2023-06-19T02:07:41;43.33;;;40.83;;
33644;SDS011;19986;48.190;16.366;2023-06-19T02:10:09;42.75;;;40.25;;
33644;SDS011;19986;48.190;16.366;2023-06-19T02:12:35;42.53;;;40.08;;
33644;SDS011;19986;48.190;16.366;2023-06-19T02:15:04;41.92;;;39.45;;
33644;SDS011;19986;48.190;16.366;2023-06-19T02:17:31;42.05;;;39.55;;
33644;SDS011;19986;48.190;16.366;2023-06-19T02:19:57;42.70;;;40.20;;
33644;SDS011;19986;48.190;16.366;2023-06-19T02:22:24;43.38;;;40.65;;
33644;SDS011;19986;48.190;16.366;2023-06-19T02:24:50;44.33;;;41.72;;
33644;SDS011;19986;48.190;16.366;2023-06-19T02:27:17;43.38;;;40.88;;
33644;SDS011;19986;48.190;16.366;2023-06-19T02:29:43;42.50;;;39.83;;
33644;SDS011;19986;48.190;16.366;2023-06-19T02:32:10;42.83;;;40.13;;
33644;SDS011;19986;48.190;16.366;2023-06-19T02:34:36;44.85;;;41.95;;
33644;SDS011;19986;48.190;16.366;2023-06-19T02:37:03;42.95;;;40.35;;
33644;SDS011;19986;48.190;16.366;2023-06-19T02:39:30;41.55;;;38.88;;
33644;SDS011;19986;48.190;16.366;2023-06-19T02:41:55;41.50;;;38.92;;
33644;SDS011;19986;48.190;16.366;2023-06-19T02:44:22;42.42;;;39.72;;
33644;SDS011;19986;48.190;16.366;2023-06-19T02:46:48;43.08;;;40.58;;
33644;SDS011;19986;48.190;16.366;2023-06-19T02:49:15;44.50;;;41.63;;
33644;SDS011;19986;48.190;16.366;2023-06-19T02:51:41;45.88;;;42.90;;
33644;SDS011;19986;48.190;16.366;2023-06-19T02:54:06;48.40;;;45.42;;
33644;SDS011;19986;48.190;16.366;2023-06-19T02:56:32;47.72;;;44.17;;
33644;SDS011;19986;48.190;16.366;2023-06-19T02:58:58;45.58;;;42.10;;
33644;SDS011;19986;48.190;16.366;2023-06-19T03:01:24;46.42;;;43.53;;
33644;SDS011;19986;48.190;16.366;2023-06-19T03:03:50;47.90;;;44.58;;
33644;SDS011;19986;48.190;16.366;2023-06-19T03:06:17;46.40;;;43.30;;
33644;SDS011;19986;48.190;16.366;2023-06-19T03:08:43;47.13;;;43.72;;
33644;SDS011;19986;48.190;16.366;2023-06-19T03:11:09;47.28;;;44.22;;
33644;SDS011;19986;48.190;16.366;2023-06-19T03:13:52;48.67;;;45.35;;
33644;SDS011;19986;48.190;16.366;2023-06-19T03:16:19;48.33;;;45.08;;
33644;SDS011;19986;48.190;16.366;2023-06-19T03:18:46;48.42;;;45.03;;
33644;SDS011;19986;48.190;16.366;2023-06-19T03:21:13;46.78;;;43.65;;
33644;SDS011;19986;48.190;16.366;2023-06-19T03:23:39;49.88;;;46.38;;
33644;SDS011;19986;48.190;16.366;2023-06-19T03:26:09;44.40;;;41.47;;
33644;SDS011;19986;48.190;16.366;2023-06-19T03:28:38;45.63;;;42.83;;
33644;SDS011;19986;48.190;16.366;2023-06-19T03:31:03;43.15;;;40.25;;
33644;SDS011;19986;48.190;16.366;2023-06-19T03:33:29;43.75;;;41.05;;
33644;SDS011;19986;48.190;16.366;2023-06-19T03:35:55;43.58;;;40.58;;
33644;SDS011;19986;48.190;16.366;2023-06-19T03:38:22;42.05;;;39.50;;
33644;SDS011;19986;48.190;16.366;2023-06-19T03:40:48;43.25;;;40.63;;
33644;SDS011;19986;48.190;16.366;2023-06-19T03:43:13;43.47;;;40.78;;
33644;SDS011;19986;48.190;16.366;2023-06-19T03:45:39;44.05;;;41.40;;
33644;SDS011;19986;48.190;16.366;2023-06-19T03:48:06;43.03;;;40.28;;
33644;SDS011;19986;48.190;16.366;2023-06-19T03:50:32;40.50;;;38.00;;
33644;SDS011;19986;48.190;16.366;2023-06-19T03:53:00;43.13;;;40.22;;
33644;SDS011;19986;48.190;16.366;2023-06-19T03:55:26;46.17;;;43.28;;
33644;SDS011;19986;48.190;16.366;2023-06-19T03:57:52;42.13;;;39.53;;
33644;SDS011;19986;48.190;16.366;2023-06-19T04:00:18;44.10;;;41.28;;
33644;SDS011;19986;48.190;16.366;2023-06-19T04:02:44;43.78;;;41.17;;
33644;SDS011;19986;48.190;16.366;2023-06-19T04:05:11;45.47;;;42.40;;
33644;SDS011;19986;48.190;16.366;2023-06-19T04:07:38;44.75;;;41.65;;
33644;SDS011;19986;48.190;16.366;2023-06-19T04:10:05;44.40;;;41.42;;
33644;SDS011;19986;48.190;16.366;2023-06-19T04:12:31;45.17;;;42.58;;
33644;SDS011;19986;48.190;16.366;2023-06-19T04:14:57;45.05;;;42.15;;
33644;SDS011;19986;48.190;16.366;2023-06-19T04:17:22;44.80;;;42.00;;
33644;SDS011;19986;48.190;16.366;2023-06-19T04:19:48;45.70;;;42.90;;
33644;SDS011;19986;48.190;16.366;2023-06-19T04:22:14;45.33;;;42.38;;
33644;SDS011;19986;48.190;16.366;2023-06-19T04:24:40;44.97;;;42.05;;
33644;SDS011;19986;48.190;16.366;2023-06-19T04:27:06;44.75;;;41.78;;
33644;SDS011;19986;48.190;16.366;2023-06-19T04:29:33;45.35;;;42.10;;
33644;SDS011;19986;48.190;16.366;2023-06-19T04:32:00;45.25;;;42.25;;
33644;SDS011;19986;48.190;16.366;2023-06-19T04:34:28;44.53;;;41.50;;
33644;SDS011;19986;48.190;16.366;2023-06-19T04:36:54;44.80;;;41.85;;
33644;SDS011;19986;48.190;16.366;2023-06-19T04:39:23;44.72;;;41.60;;
33644;SDS011;19986;48.190;16.366;2023-06-19T04:41:49;46.35;;;43.15;;
33644;SDS011;19986;48.190;16.366;2023-06-19T04:44:15;43.92;;;41.13;;
33644;SDS011;19986;48.190;16.366;2023-06-19T04:46:42;43.35;;;40.15;;
33644;SDS011;19986;48.190;16.366;2023-06-19T04:49:12;47.60;;;44.50;;
33644;SDS011;19986;48.190;16.366;2023-06-19T04:51:38;47.70;;;44.60;;
33644;SDS011;19986;48.190;16.366;2023-06-19T04:54:06;46.47;;;43.38;;
33644;SDS011;19986;48.190;16.366;2023-06-19T04:56:32;45.40;;;42.28;;
33644;SDS011;19986;48.190;16.366;2023-06-19T04:58:58;45.33;;;42.17;;
33644;SDS011;19986;48.190;16.366;2023-06-19T05:01:26;44.70;;;41.70;;
33644;SDS011;19986;48.190;16.366;2023-06-19T05:03:55;42.90;;;40.00;;
33644;SDS011;19986;48.190;16.366;2023-06-19T05:06:25;43.50;;;40.08;;
33644;SDS011;19986;48.190;16.366;2023-06-19T05:08:51;42.80;;;39.70;;
33644;SDS011;19986;48.190;16.366;2023-06-19T05:11:17;42.58;;;39.75;;
33644;SDS011;19986;48.190;16.366;2023-06-19T05:13:44;42.28;;;39.17;;
33644;SDS011;19986;48.190;16.366;2023-06-19T05:16:10;43.78;;;40.45;;
33644;SDS011;19986;48.190;16.366;2023-06-19T05:18:36;43.50;;;40.22;;
33644;SDS011;19986;48.190;16.366;2023-06-19T05:21:03;44.30;;;41.30;;
33644;SDS011;19986;48.190;16.366;2023-06-19T05:23:29;44.88;;;41.35;;
33644;SDS011;19986;48.190;16.366;2023-06-19T05:25:54;43.95;;;40.60;;
33644;SDS011;19986;48.190;16.366;2023-06-19T05:28:20;45.25;;;42.08;;
33644;SDS011;19986;48.190;16.366;2023-06-19T05:30:46;85.43;;;46.15;;
33644;SDS011;19986;48.190;16.366;2023-06-19T05:33:12;43.38;;;40.35;;
33644;SDS011;19986;48.190;16.366;2023-06-19T05:35:41;44.58;;;41.53;;
33644;SDS011;19986;48.190;16.366;2023-06-19T05:38:08;46.72;;;43.60;;
33644;SDS011;19986;48.190;16.366;2023-06-19T05:40:34;45.33;;;42.05;;
33644;SDS011;19986;48.190;16.366;2023-06-19T05:43:01;41.97;;;38.72;;
33644;SDS011;19986;48.190;16.366;2023-06-19T05:45:27;43.95;;;40.80;;
33644;SDS011;19986;48.190;16.366;2023-06-19T05:47:53;45.20;;;41.95;;
33644;SDS011;19986;48.190;16.366;2023-06-19T05:50:18;43.50;;;40.50;;
33644;SDS011;19986;48.190;16.366;2023-06-19T05:52:44;46.33;;;42.83;;
33644;SDS011;19986;48.190;16.366;2023-06-19T05:55:10;44.13;;;41.00;;
33644;SDS011;19986;48.190;16.366;2023-06-19T05:57:37;44.88;;;41.83;;
33644;SDS011;19986;48.190;16.366;2023-06-19T06:00:03;42.72;;;39.72;;
33644;SDS011;19986;48.190;16.366;2023-06-19T06:02:31;41.38;;;38.65;;
33644;SDS011;19986;48.190;16.366;2023-06-19T06:04:56;44.55;;;41.53;;
33644;SDS011;19986;48.190;16.366;2023-06-19T06:07:22;42.35;;;39.50;;
33644;SDS011;19986;48.190;16.366;2023-06-19T06:09:48;42.67;;;39.85;;
33644;SDS011;19986;48.190;16.366;2023-06-19T06:12:14;42.00;;;39.00;;
33644;SDS011;19986;48.190;16.366;2023-06-19T06:14:40;42.85;;;39.72;;
33644;SDS011;19986;48.190;16.366;2023-06-19T06:17:06;41.63;;;38.83;;
33644;SDS011;19986;48.190;16.366;2023-06-19T06:19:32;43.10;;;39.95;;
33644;SDS011;19986;48.190;16.366;2023-06-19T06:21:58;42.50;;;39.67;;
33644;SDS011;19986;48.190;16.366;2023-06-19T06:24:24;43.42;;;39.40;;
33644;SDS011;19986;48.190;16.366;2023-06-19T06:26:50;41.97;;;38.97;;
33644;SDS011;19986;48.190;16.366;2023-06-19T06:29:16;42.50;;;39.90;;
33644;SDS011;19986;48.190;16.366;2023-06-19T06:31:45;40.13;;;37.60;;
33644;SDS011;19986;48.190;16.366;2023-06-19T06:34:12;41.03;;;38.25;;
33644;SDS011;19986;48.190;16.366;2023-06-19T06:36:38;40.63;;;38.22;;
33644;SDS011;19986;48.190;16.366;2023-06-19T06:39:05;39.58;;;36.97;;
33644;SDS011;19986;48.190;16.366;2023-06-19T06:41:31;40.17;;;37.80;;
33644;SDS011;19986;48.190;16.366;2023-06-19T06:43:57;41.80;;;39.38;;
33644;SDS011;19986;48.190;16.366;2023-06-19T06:46:23;43.30;;;40.25;;
33644;SDS011;19986;48.190;16.366;2023-06-19T06:48:49;43.33;;;40.45;;
33644;SDS011;19986;48.190;16.366;2023-06-19T06:51:15;41.15;;;38.10;;
33644;SDS011;19986;48.190;16.366;2023-06-19T06:53:41;41.47;;;38.97;;
33644;SDS011;19986;48.190;16.366;2023-06-19T06:56:07;40.50;;;38.03;;
33644;SDS011;19986;48.190;16.366;2023-06-19T06:58:32;42.50;;;39.97;;
33644;SDS011;19986;48.190;16.366;2023-06-19T07:00:58;41.35;;;38.70;;
33644;SDS011;19986;48.190;16.366;2023-06-19T07:03:24;42.17;;;39.10;;
33644;SDS011;19986;48.190;16.366;2023-06-19T07:05:50;40.85;;;38.35;;
33644;SDS011;19986;48.190;16.366;2023-06-19T07:08:16;40.78;;;38.28;;
33644;SDS011;19986;48.190;16.366;2023-06-19T07:10:42;41.88;;;38.95;;
33644;SDS011;19986;48.190;16.366;2023-06-19T07:13:07;42.42;;;39.83;;
33644;SDS011;19986;48.190;16.366;2023-06-19T07:15:33;40.72;;;38.13;;
33644;SDS011;19986;48.190;16.366;2023-06-19T07:17:59;40.08;;;37.50;;
33644;SDS011;19986;48.190;16.366;2023-06-19T07:20:25;41.63;;;38.70;;
33644;SDS011;19986;48.190;16.366;2023-06-19T07:22:52;42.15;;;39.33;;
33644;SDS011;19986;48.190;16.366;2023-06-19T07:25:18;42.08;;;39.47;;
33644;SDS011;19986;48.190;16.366;2023-06-19T07:27:44;40.45;;;38.10;;
33644;SDS011;19986;48.190;16.366;2023-06-19T07:30:10;41.35;;;38.55;;
33644;SDS011;19986;48.190;16.366;2023-06-19T07:32:37;42.38;;;39.35;;
33644;SDS011;19986;48.190;16.366;2023-06-19T07:35:03;41.30;;;38.80;;
33644;SDS011;19986;48.190;16.366;2023-06-19T07:37:32;40.25;;;37.85;;
33644;SDS011;19986;48.190;16.366;2023-06-19T07:39:58;42.35;;;39.75;;
33644;SDS011;19986;48.190;16.366;2023-06-19T07:42:24;40.17;;;37.50;;
33644;SDS011;19986;48.190;16.366;2023-06-19T07:44:51;40.70;;;38.30;;
33644;SDS011;19986;48.190;16.366;2023-06-19T07:47:17;38.83;;;36.50;;
33644;SDS011;19986;48.190;16.366;2023-06-19T07:49:44;38.70;;;36.33;;
33644;SDS011;19986;48.190;16.366;2023-06-19T07:52:10;39.95;;;37.38;;
33644;SDS011;19986;48.190;16.366;2023-06-19T07:54:36;39.63;;;36.92;;
33644;SDS011;19986;48.190;16.366;2023-06-19T07:57:17;38.65;;;36.10;;
33644;SDS011;19986;48.190;16.366;2023-06-19T07:59:43;40.10;;;37.45;;
33644;SDS011;19986;48.190;16.366;2023-06-19T08:02:10;41.05;;;38.42;;
33644;SDS011;19986;48.190;16.366;2023-06-19T08:04:36;39.28;;;36.88;;
33644;SDS011;19986;48.190;16.366;2023-06-19T08:07:02;42.33;;;39.47;;
33644;SDS011;19986;48.190;16.366;2023-06-19T08:09:28;41.13;;;38.55;;
33644;SDS011;19986;48.190;16.366;2023-06-19T08:11:54;41.85;;;39.15;;
33644;SDS011;19986;48.190;16.366;2023-06-19T08:14:19;42.45;;;39.20;;
33644;SDS011;19986;48.190;16.366;2023-06-19T08:16:45;46.60;;;43.10;;
33644;SDS011;19986;48.190;16.366;2023-06-19T08:19:11;41.75;;;38.70;;
33644;SDS011;19986;48.190;16.366;2023-06-19T08:21:37;43.53;;;40.50;;
33644;SDS011;19986;48.190;16.366;2023-06-19T08:24:03;42.85;;;39.53;;
33644;SDS011;19986;48.190;16.366;2023-06-19T08:26:35;40.70;;;37.45;;
33644;SDS011;19986;48.190;16.366;2023-06-19T08:29:01;42.70;;;39.35;;
33644;SDS011;19986;48.190;16.366;2023-06-19T08:31:28;42.92;;;39.45;;
33644;SDS011;19986;48.190;16.366;2023-06-19T08:33:55;42.08;;;39.15;;
33644;SDS011;19986;48.190;16.366;2023-06-19T08:36:21;40.45;;;37.80;;
33644;SDS011;19986;48.190;16.366;2023-06-19T08:38:47;41.60;;;38.72;;
33644;SDS011;19986;48.190;16.366;2023-06-19T08:41:15;40.40;;;37.63;;
33644;SDS011;19986;48.190;16.366;2023-06-19T08:43:43;41.38;;;38.15;;
33644;SDS011;19986;48.190;16.366;2023-06-19T08:46:10;40.10;;;37.33;;
33644;SDS011;19986;48.190;16.366;2023-06-19T08:48:39;39.97;;;37.03;;
33644;SDS011;19986;48.190;16.366;2023-06-19T08:51:06;39.03;;;36.40;;
33644;SDS011;19986;48.190;16.366;2023-06-19T08:53:33;40.75;;;38.33;;
33644;SDS011;19986;48.190;16.366;2023-06-19T08:56:04;39.85;;;37.40;;
33644;SDS011;19986;48.190;16.366;2023-06-19T08:58:30;39.08;;;36.38;;
33644;SDS011;19986;48.190;16.366;2023-06-19T09:00:58;37.78;;;35.47;;
33644;SDS011;19986;48.190;16.366;2023-06-19T09:03:24;41.53;;;38.42;;
33644;SDS011;19986;48.190;16.366;2023-06-19T09:05:51;40.15;;;37.17;;
33644;SDS011;19986;48.190;16.366;2023-06-19T09:08:18;39.53;;;36.90;;
33644;SDS011;19986;48.190;16.366;2023-06-19T09:11:04;38.90;;;36.13;;
33644;SDS011;19986;48.190;16.366;2023-06-19T09:13:30;39.25;;;36.63;;
33644;SDS011;19986;48.190;16.366;2023-06-19T09:16:01;40.05;;;36.90;;
33644;SDS011;19986;48.190;16.366;2023-06-19T09:18:41;40.30;;;37.38;;
33644;SDS011;19986;48.190;16.366;2023-06-19T09:21:14;39.35;;;36.67;;
33644;SDS011;19986;48.190;16.366;2023-06-19T09:23:45;39.50;;;36.67;;
33644;SDS011;19986;48.190;16.366;2023-06-19T09:26:14;39.65;;;36.80;;
33644;SDS011;19986;48.190;16.366;2023-06-19T09:28:41;39.08;;;36.67;;
33644;SDS011;19986;48.190;16.366;2023-06-19T09:31:10;39.63;;;36.55;;
33644;SDS011;19986;48.190;16.366;2023-06-19T09:33:36;37.75;;;35.45;;
33644;SDS011;19986;48.190;16.366;2023-06-19T09:36:03;39.70;;;36.40;;
33644;SDS011;19986;48.190;16.366;2023-06-19T09:38:32;37.70;;;35.28;;
33644;SDS011;19986;48.190;16.366;2023-06-19T09:41:04;38.75;;;36.28;;
33644;SDS011;19986;48.190;16.366;2023-06-19T09:43:38;36.97;;;34.42;;
33644;SDS011;19986;48.190;16.366;2023-06-19T09:46:06;38.30;;;35.90;;
33644;SDS011;19986;48.190;16.366;2023-06-19T09:48:33;37.50;;;35.20;;
33644;SDS011;19986;48.190;16.366;2023-06-19T09:51:16;38.25;;;35.85;;
33644;SDS011;19986;48.190;16.366;2023-06-19T09:53:47;38.17;;;36.08;;
33644;SDS011;19986;48.190;16.366;2023-06-19T09:56:14;36.95;;;34.85;;
33644;SDS011;19986;48.190;16.366;2023-06-19T09:58:41;36.83;;;34.50;;
33644;SDS011;19986;48.190;16.366;2023-06-19T10:01:08;36.22;;;34.17;;
33644;SDS011;19986;48.190;16.366;2023-06-19T10:03:35;37.30;;;35.20;;
33644;SDS011;19986;48.190;16.366;2023-06-19T10:06:02;36.88;;;34.65;;
33644;SDS011;19986;48.190;16.366;2023-06-19T10:08:40;38.22;;;35.63;;
33644;SDS011;19986;48.190;16.366;2023-06-19T10:11:07;37.67;;;35.45;;
33644;SDS011;19986;48.190;16.366;2023-06-19T10:13:34;35.88;;;33.97;;
33644;SDS011;19986;48.190;16.366;2023-06-19T10:16:04;36.38;;;34.30;;
33644;SDS011;19986;48.190;16.366;2023-06-19T10:18:31;36.67;;;34.55;;
33644;SDS011;19986;48.190;16.366;2023-06-19T10:20:58;36.67;;;34.25;;
33644;SDS011;19986;48.190;16.366;2023-06-19T10:23:25;37.25;;;34.95;;
33644;SDS011;19986;48.190;16.366;2023-06-19T10:33:24;36.38;;;34.30;;
33644;SDS011;19986;48.190;16.366;2023-06-19T10:35:51;35.50;;;33.35;;
33644;SDS011;19986;48.190;16.366;2023-06-19T10:38:17;36.63;;;34.58;;
33644;SDS011;19986;48.190;16.366;2023-06-19T10:40:44;35.60;;;33.53;;
33644;SDS011;19986;48.190;16.366;2023-06-19T10:43:11;37.05;;;34.97;;
33644;SDS011;19986;48.190;16.366;2023-06-19T10:45:38;36.80;;;34.70;;
33644;SDS011;19986;48.190;16.366;2023-06-19T10:48:04;35.78;;;33.58;;
33644;SDS011;19986;48.190;16.366;2023-06-19T10:50:34;36.20;;;34.13;;
33644;SDS011;19986;48.190;16.366;2023-06-19T10:53:04;36.83;;;34.63;;
33644;SDS011;19986;48.190;16.366;2023-06-19T10:55:30;36.42;;;33.88;;
33644;SDS011;19986;48.190;16.366;2023-06-19T10:57:56;35.63;;;33.53;;
33644;SDS011;19986;48.190;16.366;2023-06-19T11:00:24;37.33;;;34.92;;
33644;SDS011;19986;48.190;16.366;2023-06-19T11:02:55;36.10;;;33.90;;
33644;SDS011;19986;48.190;16.366;2023-06-19T11:05:22;37.05;;;34.90;;
33644;SDS011;19986;48.190;16.366;2023-06-19T11:07:52;37.08;;;34.88;;
33644;SDS011;19986;48.190;16.366;2023-06-19T11:10:21;36.60;;;34.05;;
33644;SDS011;19986;48.190;16.366;2023-06-19T11:12:49;37.40;;;35.03;;
33644;SDS011;19986;48.190;16.366;2023-06-19T11:15:18;36.97;;;34.92;;
33644;SDS011;19986;48.190;16.366;2023-06-19T11:17:44;36.67;;;34.38;;
33644;SDS011;19986;48.190;16.366;2023-06-19T11:20:11;36.60;;;34.53;;
33644;SDS011;19986;48.190;16.366;2023-06-19T11:22:39;36.35;;;33.35;;
33644;SDS011;19986;48.190;16.366;2023-06-19T11:25:06;36.40;;;33.85;;
33644;SDS011;19986;48.190;16.366;2023-06-19T11:27:36;35.63;;;33.42;;
33644;SDS011;19986;48.190;16.366;2023-06-19T11:30:04;36.45;;;34.40;;
33644;SDS011;19986;48.190;16.366;2023-06-19T11:32:38;36.90;;;34.58;;
33644;SDS011;19986;48.190;16.366;2023-06-19T11:35:10;34.55;;;32.55;;
33644;SDS011;19986;48.190;16.366;2023-06-19T11:37:40;35.95;;;33.55;;
33644;SDS011;19986;48.190;16.366;2023-06-19T11:40:09;36.08;;;33.78;;
33644;SDS011;19986;48.190;16.366;2023-06-19T11:42:49;35.33;;;33.30;;
33644;SDS011;19986;48.190;16.366;2023-06-19T11:45:17;35.35;;;33.10;;
33644;SDS011;19986;48.190;16.366;2023-06-19T11:47:44;36.17;;;34.17;;
33644;SDS011;19986;48.190;16.366;2023-06-19T11:50:10;35.97;;;33.72;;
33644;SDS011;19986;48.190;16.366;2023-06-19T11:52:37;35.85;;;33.78;;
33644;SDS011;19986;48.190;16.366;2023-06-19T11:55:03;34.92;;;32.63;;
33644;SDS011;19986;48.190;16.366;2023-06-19T11:57:30;36.17;;;33.97;;
33644;SDS011;19986;48.190;16.366;2023-06-19T11:59:58;35.25;;;33.08;;
33644;SDS011;19986;48.190;16.366;2023-06-19T12:02:24;34.72;;;32.65;;
33644;SDS011;19986;48.190;16.366;2023-06-19T12:04:50;37.60;;;35.03;;
33644;SDS011;19986;48.190;16.366;2023-06-19T12:07:16;36.13;;;33.83;;
33644;SDS011;19986;48.190;16.366;2023-06-19T12:09:42;35.05;;;33.10;;
33644;SDS011;19986;48.190;16.366;2023-06-19T12:12:08;34.47;;;32.50;;
33644;SDS011;19986;48.190;16.366;2023-06-19T12:14:34;35.60;;;33.58;;
33644;SDS011;19986;48.190;16.366;2023-06-19T12:17:01;35.97;;;33.85;;
33644;SDS011;19986;48.190;16.366;2023-06-19T12:19:28;36.47;;;34.28;;
33644;SDS011;19986;48.190;16.366;2023-06-19T12:21:55;35.45;;;33.35;;
33644;SDS011;19986;48.190;16.366;2023-06-19T12:24:21;35.67;;;33.78;;
33644;SDS011;19986;48.190;16.366;2023-06-19T12:26:48;37.60;;;35.05;;
33644;SDS011;19986;48.190;16.366;2023-06-19T12:29:14;35.72;;;33.63;;
33644;SDS011;19986;48.190;16.366;2023-06-19T12:31:39;33.63;;;31.52;;
33644;SDS011;19986;48.190;16.366;2023-06-19T12:34:05;34.95;;;32.85;;
33644;SDS011;19986;48.190;16.366;2023-06-19T12:36:31;34.75;;;32.95;;
33644;SDS011;19986;48.190;16.366;2023-06-19T12:38:58;34.85;;;32.72;;
33644;SDS011;19986;48.190;16.366;2023-06-19T12:41:24;35.78;;;33.55;;
33644;SDS011;19986;48.190;16.366;2023-06-19T12:43:50;36.40;;;34.03;;
33644;SDS011;19986;48.190;16.366;2023-06-19T12:46:16;35.20;;;33.10;;
33644;SDS011;19986;48.190;16.366;2023-06-19T12:48:42;36.67;;;34.67;;
33644;SDS011;19986;48.190;16.366;2023-06-19T12:51:08;36.03;;;33.85;;
33644;SDS011;19986;48.190;16.366;2023-06-19T12:53:34;34.25;;;32.30;;
33644;SDS011;19986;48.190;16.366;2023-06-19T12:56:00;37.53;;;34.85;;
33644;SDS011;19986;48.190;16.366;2023-06-19T12:58:26;34.10;;;31.92;;
33644;SDS011;19986;48.190;16.366;2023-06-19T13:00:53;36.00;;;33.72;;
33644;SDS011;19986;48.190;16.366;2023-06-19T13:03:19;33.95;;;32.05;;
33644;SDS011;19986;48.190;16.366;2023-06-19T13:05:47;35.90;;;33.38;;
33644;SDS011;19986;48.190;16.366;2023-06-19T13:08:13;35.67;;;33.67;;
33644;SDS011;19986;48.190;16.366;2023-06-19T13:10:40;37.08;;;34.72;;
33644;SDS011;19986;48.190;16.366;2023-06-19T13:13:06;37.80;;;35.40;;
33644;SDS011;19986;48.190;16.366;2023-06-19T13:15:32;36.75;;;34.53;;
33644;SDS011;19986;48.190;16.366;2023-06-19T13:18:00;35.40;;;33.30;;
33644;SDS011;19986;48.190;16.366;2023-06-19T13:20:26;37.30;;;35.05;;
33644;SDS011;19986;48.190;16.366;2023-06-19T13:22:52;36.63;;;34.58;;
33644;SDS011;19986;48.190;16.366;2023-06-19T13:25:19;35.90;;;33.90;;
33644;SDS011;19986;48.190;16.366;2023-06-19T13:27:45;36.17;;;34.08;;
33644;SDS011;19986;48.190;16.366;2023-06-19T13:30:11;33.00;;;31.13;;
33644;SDS011;19986;48.190;16.366;2023-06-19T13:32:37;34.70;;;32.80;;
33644;SDS011;19986;48.190;16.366;2023-06-19T13:35:04;35.60;;;33.60;;
33644;SDS011;19986;48.190;16.366;2023-06-19T13:37:31;35.17;;;33.03;;
33644;SDS011;19986;48.190;16.366;2023-06-19T13:39:58;35.25;;;33.05;;
33644;SDS011;19986;48.190;16.366;2023-06-19T13:42:25;36.08;;;33.97;;
33644;SDS011;19986;48.190;16.366;2023-06-19T13:44:52;36.65;;;34.65;;
33644;SDS011;19986;48.190;16.366;2023-06-19T13:47:18;37.58;;;35.15;;
33644;SDS011;19986;48.190;16.366;2023-06-19T13:49:44;36.85;;;34.42;;
33644;SDS011;19986;48.190;16.366;2023-06-19T13:52:10;36.35;;;33.78;;
33644;SDS011;19986;48.190;16.366;2023-06-19T13:54:35;36.55;;;34.45;;
33644;SDS011;19986;48.190;16.366;2023-06-19T13:57:01;36.20;;;34.10;;
33644;SDS011;19986;48.190;16.366;2023-06-19T13:59:29;35.22;;;33.20;;
33644;SDS011;19986;48.190;16.366;2023-06-19T14:01:55;35.17;;;33.00;;
33644;SDS011;19986;48.190;16.366;2023-06-19T14:04:20;36.35;;;33.83;;
33644;SDS011;19986;48.190;16.366;2023-06-19T14:06:47;34.28;;;32.25;;
33644;SDS011;19986;48.190;16.366;2023-06-19T14:09:13;34.33;;;32.22;;
33644;SDS011;19986;48.190;16.366;2023-06-19T14:11:40;36.13;;;33.85;;
33644;SDS011;19986;48.190;16.366;2023-06-19T14:14:06;35.33;;;33.28;;
33644;SDS011;19986;48.190;16.366;2023-06-19T14:16:32;36.83;;;34.42;;